Time;durP1;ratioP1;P1;durP2;ratioP2;P2;SDS_P1;SDS_P2;PMS_P1;PMS_P2;Temp;Humidity;BMP_temperature;BMP_pressure;BME280_temperature;BME280_humidity;BME280_pressure;Samples;Min_cycle;Max_cycle;Signal;HPM_P1;HPM_P2
2021/09/27 00:00:51;;;;;;;17.03;15.53;;;;;;;19.71;88.61;96555.00;4974258;28;20261;-57
2021/09/27 00:03:17;;;;;;;16.93;15.23;;;;;;;19.69;88.53;96551.81;4974089;28;20174;-58
2021/09/27 00:05:42;;;;;;;16.73;15.13;;;;;;;19.47;90.01;96544.25;4974253;28;20475;-57
2021/09/27 00:08:08;;;;;;;17.37;15.57;;;;;;;19.58;89.04;96543.09;4974197;28;20634;-57
2021/09/27 00:10:40;;;;;;;19.20;17.00;;;;;;;19.33;90.72;96543.28;4975137;28;20414;-54
2021/09/27 00:13:06;;;;;;;18.27;16.47;;;;;;;19.19;91.22;96542.25;4977947;28;20174;-54
2021/09/27 00:15:36;;;;;;;19.07;16.97;;;;;;;18.87;93.32;96542.69;4978044;28;20452;-57
2021/09/27 00:18:03;;;;;;;16.93;15.23;;;;;;;18.59;94.81;96540.66;4978180;28;20178;-53
2021/09/27 00:20:28;;;;;;;18.33;16.40;;;;;;;18.25;96.59;96543.13;4977894;28;20405;-57
2021/09/27 00:22:54;;;;;;;18.37;16.57;;;;;;;18.48;95.47;96542.53;4977619;28;20622;-57
2021/09/27 00:25:22;;;;;;;18.60;16.70;;;;;;;18.60;95.05;96546.78;4977987;28;20205;-53
2021/09/27 00:27:48;;;;;;;18.73;17.00;;;;;;;18.36;96.45;96536.72;4977961;28;20939;-56
2021/09/27 00:30:16;;;;;;;17.57;15.70;;;;;;;18.20;97.61;96543.13;4977792;28;20414;-57
2021/09/27 00:32:42;;;;;;;17.80;15.90;;;;;;;18.31;96.92;96549.22;4977625;28;20170;-57
2021/09/27 00:35:09;;;;;;;17.70;15.87;;;;;;;18.21;97.29;96546.56;4977804;28;20500;-54
2021/09/27 00:37:34;;;;;;;17.03;15.20;;;;;;;18.37;96.27;96535.63;4977732;28;20193;-57
2021/09/27 00:40:00;;;;;;;17.57;15.63;;;;;;;18.38;95.97;96534.56;4977606;28;20414;-57
2021/09/27 00:42:25;;;;;;;17.30;15.60;;;;;;;18.33;95.94;96523.91;4976451;28;20179;-57
2021/09/27 00:44:51;;;;;;;17.13;15.33;;;;;;;18.33;95.48;96523.16;4977234;28;20194;-53
2021/09/27 00:47:17;;;;;;;17.10;15.40;;;;;;;18.39;95.20;96530.03;4977731;28;20181;-57
2021/09/27 00:49:43;;;;;;;16.43;14.83;;;;;;;18.48;94.55;96525.00;4977441;28;20644;-57
2021/09/27 00:52:08;;;;;;;17.80;15.93;;;;;;;18.37;94.13;96524.22;4977462;28;20205;-53
2021/09/27 00:54:36;;;;;;;15.83;14.20;;;;;;;18.55;93.64;96521.00;4977040;28;20166;-54
2021/09/27 00:57:16;;;;;;;16.63;15.07;;;;;;;18.38;93.60;96521.28;4977559;28;20184;-53
2021/09/27 00:59:46;;;;;;;15.67;14.07;;;;;;;18.44;93.45;96514.88;4977613;28;20404;-53
2021/09/27 01:02:12;;;;;;;16.33;14.80;;;;;;;18.45;93.31;96523.66;4977198;28;20455;-53
2021/09/27 01:04:38;;;;;;;15.60;14.10;;;;;;;18.48;92.93;96525.78;4976740;28;20848;-57
2021/09/27 01:07:21;;;;;;;17.90;14.97;;;;;;;18.28;93.76;96523.16;4977278;28;20166;-53
2021/09/27 01:09:59;;;;;;;16.23;14.63;;;;;;;18.19;93.74;96520.25;4977205;28;20425;-59
2021/09/27 01:12:36;;;;;;;15.93;14.33;;;;;;;18.17;94.13;96527.69;4977195;28;20406;-57
2021/09/27 01:15:26;;;;;;;15.93;14.33;;;;;;;18.19;94.17;96530.09;4977223;28;20420;-57
2021/09/27 01:17:58;;;;;;;16.40;14.70;;;;;;;18.09;94.32;96522.94;4977149;28;20463;-57
2021/09/27 01:20:58;;;;;;;17.40;14.30;;;;;;;18.20;94.21;96516.53;4977083;28;20900;-58
2021/09/27 01:23:48;;;;;;;15.23;13.73;;;;;;;18.25;93.64;96519.16;4975480;28;20508;-53
2021/09/27 01:26:16;;;;;;;15.37;13.87;;;;;;;18.33;93.31;96526.59;4976905;28;20429;-53
2021/09/27 01:29:01;;;;;;;15.33;13.70;;;;;;;18.35;93.05;96523.69;4976722;28;20410;-53
2021/09/27 01:32:05;;;;;;;15.37;13.77;;;;;;;18.34;93.46;96516.75;4976936;28;20409;-53
2021/09/27 01:35:09;;;;;;;14.80;13.20;;;;;;;18.18;93.32;96517.84;4976529;28;20402;-53
2021/09/27 01:37:46;;;;;;;14.70;13.30;;;;;;;18.37;92.48;96509.00;4970043;28;20495;-54
2021/09/27 01:40:18;;;;;;;14.63;13.33;;;;;;;18.42;91.97;96511.69;4976661;28;20509;-53
2021/09/27 01:43:05;;;;;;;14.47;13.10;;;;;;;18.43;92.08;96509.84;4976382;28;20412;-54
2021/09/27 01:45:38;;;;;;;15.77;13.80;;;;;;;18.50;91.92;96512.22;4976445;28;20469;-53
2021/09/27 01:48:30;;;;;;;13.80;12.57;;;;;;;18.46;91.39;96518.06;4976813;28;20401;-54
2021/09/27 01:50:59;;;;;;;14.13;12.40;;;;;;;18.37;91.67;96509.00;4977012;28;20404;-58
2021/09/27 01:53:33;;;;;;;14.53;13.00;;;;;;;18.51;91.08;96514.59;4976296;28;20416;-53
2021/09/27 01:56:14;;;;;;;15.67;13.93;;;;;;;18.56;91.02;96513.78;4976639;28;20428;-57
2021/09/27 01:59:12;;;;;;;14.60;13.20;;;;;;;18.67;90.51;96510.00;4976895;28;20405;-57
2021/09/27 02:01:53;;;;;;;13.40;12.10;;;;;;;18.78;89.94;96504.38;4976572;28;20417;-57
2021/09/27 02:04:27;;;;;;;13.43;12.13;;;;;;;18.76;89.68;96505.72;4976007;28;20908;-57
2021/09/27 02:06:55;;;;;;;14.00;12.60;;;;;;;18.92;88.73;96502.69;4976516;28;20476;-53
2021/09/27 02:09:41;;;;;;;13.47;12.20;;;;;;;18.87;88.74;96507.25;4976224;28;20421;-57
2021/09/27 02:12:18;;;;;;;13.60;12.20;;;;;;;18.90;88.45;96512.03;4976712;28;20459;-53
2021/09/27 02:15:02;;;;;;;14.07;12.30;;;;;;;18.97;88.40;96508.00;4975991;28;20896;-57
2021/09/27 02:17:36;;;;;;;13.67;12.37;;;;;;;19.10;87.88;96499.41;4976162;28;20412;-58
2021/09/27 02:20:28;;;;;;;14.53;12.97;;;;;;;19.07;87.65;96507.97;4976245;28;20409;-59
2021/09/27 02:23:17;;;;;;;14.23;12.93;;;;;;;19.11;87.48;96508.97;4975761;28;20437;-54
2021/09/27 02:25:44;;;;;;;13.63;12.23;;;;;;;19.19;87.00;96513.75;4975842;28;20707;-57
2021/09/27 02:28:16;;;;;;;12.70;11.50;;;;;;;19.17;86.91;96509.75;4975922;28;20401;-53
2021/09/27 02:31:00;;;;;;;18.70;12.20;;;;;;;19.18;86.80;96517.50;4976118;28;20401;-57
2021/09/27 02:33:33;;;;;;;16.53;12.60;;;;;;;19.19;86.75;96521.72;4975323;28;20489;-57
2021/09/27 02:36:24;;;;;;;14.77;12.10;;;;;;;19.21;86.53;96518.78;4975792;28;20520;-54
2021/09/27 02:39:01;;;;;;;17.87;11.87;;;;;;;19.18;86.46;96517.50;4975781;28;20432;-53
2021/09/27 02:41:35;;;;;;;13.90;12.50;;;;;;;19.23;86.25;96509.47;4975652;28;20500;-53
2021/09/27 02:44:02;;;;;;;15.27;13.67;;;;;;;19.22;86.24;96512.41;4975222;28;20448;-57
2021/09/27 02:46:29;;;;;;;15.93;13.90;;;;;;;19.07;86.53;96510.63;4975446;28;20429;-53
2021/09/27 02:49:09;;;;;;;15.27;13.87;;;;;;;19.11;86.45;96510.88;4975944;28;20433;-53
2021/09/27 02:51:37;;;;;;;14.30;12.90;;;;;;;19.10;86.63;96512.72;4975722;28;20546;-58
2021/09/27 02:54:03;;;;;;;13.87;12.13;;;;;;;19.16;86.42;96513.50;4975070;28;20923;-54
2021/09/27 02:56:47;;;;;;;23.73;14.17;;;;;;;19.15;86.51;96506.59;4975517;28;20422;-57
2021/09/27 02:59:30;;;;;;;14.27;12.87;;;;;;;19.19;86.72;96520.94;4975283;28;20192;-58
2021/09/27 03:02:17;;;;;;;15.10;13.60;;;;;;;19.23;86.60;96513.97;4975364;28;20397;-57
2021/09/27 03:05:07;;;;;;;13.20;12.00;;;;;;;19.31;86.01;96514.22;4975012;28;20960;-57
2021/09/27 03:07:48;;;;;;;14.80;13.27;;;;;;;19.26;86.30;96519.56;4975280;28;20413;-59
2021/09/27 03:10:42;;;;;;;16.13;14.13;;;;;;;19.30;86.63;96517.13;4975402;28;20401;-57
2021/09/27 03:13:14;;;;;;;13.67;12.33;;;;;;;19.23;86.81;96517.44;4974877;28;20396;-57
2021/09/27 03:15:51;;;;;;;15.13;13.73;;;;;;;19.25;86.22;96520.63;4975030;28;20781;-57
2021/09/27 03:18:31;;;;;;;14.80;13.40;;;;;;;19.20;86.40;96523.31;4975568;28;20433;-57
2021/09/27 03:21:33;;;;;;;14.13;12.73;;;;;;;19.12;86.74;96526.56;4975121;28;20460;-57
2021/09/27 03:24:23;;;;;;;13.97;12.67;;;;;;;19.05;87.06;96515.44;4974774;28;20483;-54
2021/09/27 03:27:20;;;;;;;15.50;13.83;;;;;;;18.98;87.81;96524.78;4975251;28;20520;-57
2021/09/27 03:30:14;;;;;;;15.17;13.67;;;;;;;18.97;87.60;96521.31;4974944;28;20775;-54
2021/09/27 03:32:47;;;;;;;15.00;13.53;;;;;;;19.00;87.66;96520.78;4974774;28;20394;-57
2021/09/27 03:35:45;;;;;;;15.60;14.10;;;;;;;18.72;89.18;96520.63;4973753;28;20426;-57
2021/09/27 03:38:19;;;;;;;14.07;12.77;;;;;;;18.91;88.48;96518.97;4974684;28;20908;-57
2021/09/27 03:40:53;;;;;;;14.47;13.00;;;;;;;19.02;87.82;96523.94;4974992;28;20413;-57
2021/09/27 03:43:32;;;;;;;14.77;12.90;;;;;;;19.06;87.66;96521.56;4974540;28;20416;-57
2021/09/27 03:46:11;;;;;;;14.10;12.73;;;;;;;19.13;87.66;96527.38;4974111;28;20461;-53
2021/09/27 03:48:56;;;;;;;14.87;13.30;;;;;;;19.17;87.24;96520.41;4974792;28;20413;-57
2021/09/27 03:51:28;;;;;;;15.73;13.53;;;;;;;19.19;87.12;96520.94;4974675;28;20405;-53
2021/09/27 03:54:01;;;;;;;14.60;13.20;;;;;;;19.32;86.51;96525.69;4974446;28;20404;-54
2021/09/27 03:56:39;;;;;;;14.87;13.43;;;;;;;19.26;86.85;96518.75;4974735;28;20492;-54
2021/09/27 03:59:14;;;;;;;15.80;13.50;;;;;;;19.20;86.67;96520.66;4974780;28;20630;-58
2021/09/27 04:02:11;;;;;;;15.43;12.90;;;;;;;19.17;87.08;96517.75;4974629;28;20411;-57
2021/09/27 04:05:09;;;;;;;14.13;12.60;;;;;;;19.23;86.74;96516.66;4970402;28;20952;-58
2021/09/27 04:08:12;;;;;;;13.77;12.57;;;;;;;19.30;86.50;96517.13;4974633;28;20409;-54
2021/09/27 04:11:03;;;;;;;13.73;12.33;;;;;;;19.32;86.48;96515.81;4974626;28;20887;-57
2021/09/27 04:13:34;;;;;;;13.90;12.70;;;;;;;19.35;85.87;96517.13;4974254;28;20413;-53
2021/09/27 04:16:24;;;;;;;14.83;13.47;;;;;;;19.28;86.60;96517.41;4974506;28;20480;-54
2021/09/27 04:18:49;;;;;;;14.60;13.10;;;;;;;19.34;86.26;96516.34;4974634;28;20463;-54
2021/09/27 04:21:23;;;;;;;15.30;13.80;;;;;;;19.35;85.82;96515.25;4974326;28;20413;-53
2021/09/27 04:24:19;;;;;;;14.00;11.60;;;;;;;19.34;86.31;96510.22;4974021;28;20261;-57
2021/09/27 04:27:08;;;;;;;14.67;12.00;;;;;;;19.38;86.01;96501.41;4974234;28;20897;-58
2021/09/27 04:29:52;;;;;;;15.43;13.23;;;;;;;19.39;86.03;96507.50;4974509;28;20813;-58
2021/09/27 04:32:32;;;;;;;14.47;13.07;;;;;;;19.42;85.10;96504.31;4974514;28;20884;-53
2021/09/27 04:35:31;;;;;;;14.70;13.10;;;;;;;19.39;84.76;96504.84;4973869;28;20425;-57
2021/09/27 04:37:57;;;;;;;15.23;13.67;;;;;;;19.39;85.09;96502.97;4974024;28;20853;-53
2021/09/27 04:40:40;;;;;;;14.80;13.20;;;;;;;19.30;85.20;96504.59;4974399;28;20417;-59
2021/09/27 04:43:21;;;;;;;14.50;12.60;;;;;;;19.26;85.21;96500.09;4973782;28;20663;-57
2021/09/27 04:45:59;;;;;;;14.30;12.90;;;;;;;19.30;84.98;96498.47;4974059;28;20500;-57
2021/09/27 04:48:53;;;;;;;14.23;12.93;;;;;;;19.26;85.22;96502.75;4974257;28;20417;-54
2021/09/27 04:51:43;;;;;;;16.90;13.10;;;;;;;19.18;85.39;96490.84;4974295;28;20488;-57
2021/09/27 04:54:50;;;;;;;15.07;13.47;;;;;;;19.18;85.10;96496.16;4973964;28;20413;-53
2021/09/27 04:57:30;;;;;;;15.07;13.63;;;;;;;19.18;85.10;96501.50;4975745;28;20795;-53
2021/09/27 05:00:07;;;;;;;18.30;13.57;;;;;;;19.13;85.06;96501.50;4977553;28;20495;-59
2021/09/27 05:02:51;;;;;;;16.27;13.20;;;;;;;19.10;84.80;96509.25;4977576;28;20409;-57
2021/09/27 05:05:28;;;;;;;14.87;13.27;;;;;;;19.09;85.32;96510.34;4977642;28;20471;-54
2021/09/27 05:07:58;;;;;;;16.00;13.70;;;;;;;19.08;85.11;96512.19;4977354;28;20410;-57
2021/09/27 05:10:44;;;;;;;13.80;12.40;;;;;;;18.97;85.68;96507.22;4977201;28;20497;-57
2021/09/27 05:13:57;;;;;;;14.23;12.80;;;;;;;18.82;85.96;96515.28;4977285;28;20405;-54
2021/09/27 05:17:10;;;;;;;15.83;14.23;;;;;;;18.90;85.81;96517.34;4975044;28;20511;-57
2021/09/27 05:19:54;;;;;;;14.97;13.47;;;;;;;18.81;86.14;96521.66;4974101;28;20432;-53
2021/09/27 05:22:49;;;;;;;14.27;12.97;;;;;;;18.84;86.04;96513.91;4977359;28;20805;-53
2021/09/27 05:25:23;;;;;;;14.90;13.43;;;;;;;18.71;86.88;96519.84;4975709;28;20887;-57
2021/09/27 05:28:10;;;;;;;14.20;12.80;;;;;;;18.63;87.10;96522.25;4977107;28;20884;-58
2021/09/27 05:30:47;;;;;;;15.13;13.63;;;;;;;18.66;87.34;96516.41;4977147;28;20390;-57
2021/09/27 05:33:15;;;;;;;15.17;13.77;;;;;;;18.68;86.60;96516.94;4977001;28;20906;-54
2021/09/27 05:35:47;;;;;;;15.90;14.30;;;;;;;18.71;86.43;96514.53;4975537;28;20815;-53
2021/09/27 05:38:18;;;;;;;15.60;14.00;;;;;;;18.71;86.33;96519.06;4976905;28;20439;-53
2021/09/27 05:41:05;;;;;;;15.73;14.03;;;;;;;18.67;86.24;96521.47;4976967;28;20916;-53
2021/09/27 05:44:04;;;;;;;14.37;12.97;;;;;;;18.49;87.38;96524.72;4976566;28;20420;-54
2021/09/27 05:46:38;;;;;;;17.57;13.77;;;;;;;18.33;88.34;96518.59;4976710;28;20499;-57
2021/09/27 05:49:14;;;;;;;13.70;12.30;;;;;;;18.31;88.38;96522.63;4976959;28;20795;-54
2021/09/27 05:52:00;;;;;;;14.30;12.70;;;;;;;18.22;89.00;96532.22;4976824;28;20412;-54
2021/09/27 05:54:47;;;;;;;16.07;13.40;;;;;;;18.10;90.34;96531.72;4976186;28;20397;-57
2021/09/27 05:57:27;;;;;;;15.10;13.40;;;;;;;18.06;90.42;96525.31;4976770;28;20436;-59
2021/09/27 06:00:27;;;;;;;14.70;13.20;;;;;;;17.98;91.10;96523.19;4976687;28;20605;-58
2021/09/27 06:03:04;;;;;;;15.00;13.50;;;;;;;17.80;92.13;96524.56;4975804;28;20430;-54
2021/09/27 06:05:36;;;;;;;15.17;13.57;;;;;;;17.71;92.84;96528.00;4976350;28;20468;-59
2021/09/27 06:08:07;;;;;;;15.30;13.60;;;;;;;17.65;93.45;96532.53;4976063;28;20460;-57
2021/09/27 06:10:56;;;;;;;14.40;12.90;;;;;;;17.54;93.78;96538.13;4976386;28;20421;-54
2021/09/27 06:13:31;;;;;;;14.43;12.80;;;;;;;17.45;94.52;96538.59;4976011;28;20822;-57
2021/09/27 06:16:01;;;;;;;15.33;13.83;;;;;;;17.49;94.28;96541.56;4976244;28;20432;-53
2021/09/27 06:18:53;;;;;;;15.07;12.90;;;;;;;17.68;93.41;96532.00;4976193;28;20508;-53
2021/09/27 06:21:45;;;;;;;14.83;12.70;;;;;;;17.62;93.68;96543.69;4976004;28;20780;-53
2021/09/27 06:24:16;;;;;;;14.80;13.30;;;;;;;17.47;94.41;96538.34;4975679;28;20457;-53
2021/09/27 06:26:59;;;;;;;14.03;12.73;;;;;;;17.65;93.62;96539.69;4976015;28;20919;-58
2021/09/27 06:29:39;;;;;;;14.10;12.70;;;;;;;17.54;94.23;96538.13;4976381;28;20417;-57
2021/09/27 06:32:29;;;;;;;13.83;12.43;;;;;;;17.52;94.53;96537.56;4976067;28;20495;-53
2021/09/27 06:35:01;;;;;;;16.50;12.97;;;;;;;17.44;94.96;96538.88;4975178;28;20454;-53
2021/09/27 06:37:29;;;;;;;14.33;12.93;;;;;;;17.68;93.71;96531.19;4975613;28;20512;-54
2021/09/27 06:39:54;;;;;;;15.50;12.17;;;;;;;17.80;93.09;96526.41;4975673;28;20409;-59
2021/09/27 06:42:20;;;;;;;13.20;11.90;;;;;;;17.91;92.72;96536.78;4975867;28;20412;-57
2021/09/27 06:44:46;;;;;;;14.23;12.93;;;;;;;18.01;92.67;96533.31;4975261;28;20214;-57
2021/09/27 06:47:14;;;;;;;12.40;11.20;;;;;;;18.08;92.28;96536.50;4975696;28;20418;-53
2021/09/27 06:49:40;;;;;;;14.17;12.77;;;;;;;18.04;91.98;96530.91;4975498;28;20673;-57
2021/09/27 06:52:06;;;;;;;13.23;11.83;;;;;;;18.13;91.49;96531.16;4975594;28;20497;-54
2021/09/27 06:54:32;;;;;;;12.67;10.93;;;;;;;18.09;91.73;96535.41;4975217;28;20178;-57
2021/09/27 06:56:59;;;;;;;11.70;10.50;;;;;;;18.27;91.23;96532.19;4975453;28;20504;-58
2021/09/27 06:59:24;;;;;;;14.43;11.07;;;;;;;18.29;90.69;96525.56;4975567;28;20537;-57
2021/09/27 07:01:50;;;;;;;13.63;11.60;;;;;;;18.04;91.70;96527.47;4975228;28;20460;-57
2021/09/27 07:04:15;;;;;;;12.50;11.20;;;;;;;18.14;92.00;96530.91;4974884;28;20194;-57
2021/09/27 07:06:41;;;;;;;13.27;11.97;;;;;;;18.27;91.97;96526.88;4975335;28;20237;-54
2021/09/27 07:09:06;;;;;;;11.43;10.23;;;;;;;18.29;91.88;96527.41;4975404;28;20182;-57
2021/09/27 07:11:32;;;;;;;12.03;10.33;;;;;;;18.14;92.42;96528.22;4974004;28;20174;-57
2021/09/27 07:13:57;;;;;;;12.33;11.17;;;;;;;18.32;91.83;96524.19;4974901;28;20166;-53
2021/09/27 07:16:23;;;;;;;11.63;10.53;;;;;;;18.43;91.25;96515.97;4975254;28;20198;-54
2021/09/27 07:18:48;;;;;;;12.10;11.00;;;;;;;18.61;89.84;96514.56;4975248;28;20205;-58
2021/09/27 07:21:14;;;;;;;12.00;10.77;;;;;;;18.76;89.48;96516.38;4974127;28;20178;-54
2021/09/27 07:23:40;;;;;;;11.07;10.03;;;;;;;18.70;89.62;96509.47;4974617;28;20198;-57
2021/09/27 07:26:07;;;;;;;13.10;10.20;;;;;;;18.64;90.00;96507.91;4974955;28;20214;-54
2021/09/27 07:28:33;;;;;;;12.67;11.37;;;;;;;18.50;90.15;96510.34;4974800;28;20785;-54
2021/09/27 07:30:58;;;;;;;10.87;9.87;;;;;;;18.55;90.40;96513.00;4975015;28;20409;-53
2021/09/27 07:33:23;;;;;;;10.77;9.30;;;;;;;18.65;90.12;96517.47;4974734;28;20174;-54
2021/09/27 07:35:49;;;;;;;11.27;10.20;;;;;;;18.72;89.62;96512.66;4974973;28;20735;-58
2021/09/27 07:38:14;;;;;;;10.80;9.80;;;;;;;18.65;89.91;96512.94;4974670;28;20189;-58
2021/09/27 07:40:41;;;;;;;12.07;9.80;;;;;;;18.80;89.24;96504.91;4974985;28;20638;-55
2021/09/27 07:43:07;;;;;;;10.93;9.53;;;;;;;18.95;89.38;96504.81;4974572;28;20182;-58
2021/09/27 07:45:35;;;;;;;12.00;10.80;;;;;;;18.94;88.27;96508.56;4974550;28;20475;-54
2021/09/27 07:48:02;;;;;;;10.20;9.30;;;;;;;18.82;88.72;96508.09;4974781;28;20492;-54
2021/09/27 07:50:28;;;;;;;9.60;8.80;;;;;;;18.73;89.38;96519.59;4974802;28;20414;-55
2021/09/27 07:52:53;;;;;;;10.17;9.17;;;;;;;18.88;88.79;96519.53;4974468;28;20421;-55
2021/09/27 07:55:19;;;;;;;10.33;9.30;;;;;;;18.95;88.56;96512.81;4974592;28;20196;-58
2021/09/27 07:57:44;;;;;;;10.77;9.60;;;;;;;18.84;88.85;96510.47;4974688;28;20177;-54
2021/09/27 08:00:12;;;;;;;10.03;8.83;;;;;;;18.87;89.21;96518.72;4974766;28;20213;-54
2021/09/27 08:02:38;;;;;;;9.90;9.10;;;;;;;19.00;88.89;96512.78;4974332;28;20181;-58
2021/09/27 08:05:05;;;;;;;10.10;9.03;;;;;;;18.85;88.37;96534.16;4974469;28;20500;-58
2021/09/27 08:07:30;;;;;;;10.00;8.30;;;;;;;18.86;88.76;96519.00;4974667;28;20413;-58
2021/09/27 08:09:55;;;;;;;8.60;7.80;;;;;;;18.93;88.34;96522.94;4974845;28;20524;-58
2021/09/27 08:12:21;;;;;;;9.90;8.23;;;;;;;19.03;87.64;96512.25;4974646;28;20178;-55
2021/09/27 08:14:46;;;;;;;9.47;8.57;;;;;;;19.14;87.51;96512.97;4974173;28;20198;-55
2021/09/27 08:17:12;;;;;;;9.07;8.17;;;;;;;19.45;87.05;96512.53;4974621;28;20287;-54
2021/09/27 08:19:41;;;;;;;8.60;7.90;;;;;;;19.47;86.77;96517.59;4974549;28;20257;-58
2021/09/27 08:22:07;;;;;;;9.03;8.10;;;;;;;19.61;86.45;96523.88;4974315;28;20236;-58
2021/09/27 08:24:33;;;;;;;9.30;8.50;;;;;;;19.76;86.33;96520.28;4973871;28;20457;-57
2021/09/27 08:27:00;;;;;;;8.33;7.53;;;;;;;19.64;85.14;96525.19;4974499;28;20524;-60
2021/09/27 08:29:25;;;;;;;8.20;7.50;;;;;;;19.60;84.94;96534.81;4974470;28;20170;-54
2021/09/27 08:31:51;;;;;;;6.87;6.13;;;;;;;19.58;85.53;96542.31;4975683;28;20421;-59
2021/09/27 08:34:17;;;;;;;7.70;6.90;;;;;;;19.43;85.87;96541.34;4977754;28;20249;-58
2021/09/27 08:36:43;;;;;;;7.70;6.90;;;;;;;19.61;84.98;96531.88;4977816;28;20476;-59
2021/09/27 08:39:09;;;;;;;7.83;7.13;;;;;;;19.82;84.83;96532.53;4978194;28;20181;-55
2021/09/27 08:42:04;;;;;;;7.03;6.43;;;;;;;19.96;82.85;96528.94;4977954;28;20413;-60
2021/09/27 08:45:04;;;;;;;8.07;7.23;;;;;;;19.86;82.82;96525.53;4977328;28;20898;-58
2021/09/27 08:47:51;;;;;;;7.57;6.37;;;;;;;19.89;82.69;96531.09;4977939;28;20476;-53
2021/09/27 08:50:31;;;;;;;5.57;5.10;;;;;;;19.77;83.32;96532.53;4977895;28;20533;-59
2021/09/27 08:53:01;;;;;;;6.23;5.63;;;;;;;19.97;82.99;96535.84;4977451;28;20904;-54
2021/09/27 08:55:29;;;;;;;6.27;5.70;;;;;;;20.06;81.22;96528.03;4977730;28;20421;-58
2021/09/27 08:57:59;;;;;;;5.40;5.00;;;;;;;20.02;80.70;96527.00;4977795;28;20417;-60
2021/09/27 09:00:37;;;;;;;6.43;5.30;;;;;;;20.18;80.25;96534.59;4977617;28;20394;-55
2021/09/27 09:03:24;;;;;;;7.00;5.50;;;;;;;20.31;78.96;96525.94;4977229;28;20448;-58
2021/09/27 09:05:58;;;;;;;6.10;5.40;;;;;;;20.38;79.67;96526.41;4977508;28;20496;-58
2021/09/27 09:08:44;;;;;;;5.80;5.17;;;;;;;20.23;79.07;96528.44;4977460;28;20407;-59
2021/09/27 09:11:35;;;;;;;6.33;5.77;;;;;;;20.32;79.12;96535.56;4977514;28;20801;-54
2021/09/27 09:14:41;;;;;;;7.60;5.10;;;;;;;20.32;79.03;96527.53;4977210;28;20900;-55
2021/09/27 09:17:24;;;;;;;5.10;4.70;;;;;;;20.57;77.65;96520.31;4977366;28;20464;-55
2021/09/27 09:19:50;;;;;;;5.87;5.37;;;;;;;20.89;77.48;96523.16;4977493;28;20397;-55
2021/09/27 09:22:28;;;;;;;5.57;4.90;;;;;;;20.86;75.08;96518.38;4977321;28;21206;-55
2021/09/27 09:24:54;;;;;;;4.83;4.43;;;;;;;21.04;75.81;96522.97;4976610;28;20256;-55
2021/09/27 09:27:20;;;;;;;5.60;4.93;;;;;;;21.01;75.71;96526.22;4977311;28;20410;-55
2021/09/27 09:29:46;;;;;;;4.80;4.50;;;;;;;20.96;74.45;96523.59;4977188;28;20193;-59
2021/09/27 09:32:28;;;;;;;4.33;4.03;;;;;;;20.77;75.03;96520.09;4977146;28;20632;-55
2021/09/27 09:35:15;;;;;;;5.00;4.63;;;;;;;20.66;74.69;96522.09;4976768;28;20649;-58
2021/09/27 09:37:54;;;;;;;5.30;4.90;;;;;;;20.90;75.76;96516.72;4976646;28;20840;-55
2021/09/27 09:40:28;;;;;;;5.37;4.97;;;;;;;21.01;74.30;96513.66;4976941;28;20464;-59
2021/09/27 09:43:03;;;;;;;4.70;4.30;;;;;;;20.98;73.24;96514.19;4975902;28;20925;-55
2021/09/27 09:45:33;;;;;;;4.20;3.80;;;;;;;21.06;71.08;96518.13;4976619;28;20457;-54
2021/09/27 09:48:19;;;;;;;3.93;3.63;;;;;;;21.16;73.43;96508.09;4976746;28;20433;-58
2021/09/27 09:50:47;;;;;;;5.20;4.70;;;;;;;21.49;73.20;96514.31;4976897;28;20405;-55
2021/09/27 09:53:27;;;;;;;5.10;4.70;;;;;;;21.56;72.62;96517.41;4976331;28;20980;-58
2021/09/27 09:56:05;;;;;;;4.27;3.87;;;;;;;21.30;71.00;96522.34;4976463;28;20429;-55
2021/09/27 09:58:37;;;;;;;5.03;4.53;;;;;;;21.58;71.84;96506.44;4976505;28;20448;-55
2021/09/27 10:01:13;;;;;;;4.60;4.20;;;;;;;21.43;71.10;96510.13;4976730;28;20421;-55
2021/09/27 10:03:43;;;;;;;6.83;5.13;;;;;;;21.49;70.94;96512.44;4974905;28;20839;-55
2021/09/27 10:06:14;;;;;;;4.47;4.17;;;;;;;21.39;70.39;96512.59;4976387;28;20991;-55
2021/09/27 10:08:51;;;;;;;4.73;4.27;;;;;;;21.36;70.33;96507.81;4976348;28;20410;-58
2021/09/27 10:11:44;;;;;;;4.93;4.50;;;;;;;21.32;71.82;96509.47;4976613;28;20412;-55
2021/09/27 10:14:35;;;;;;;4.00;3.70;;;;;;;21.38;70.36;96508.31;4975627;28;20854;-55
2021/09/27 10:17:27;;;;;;;4.77;4.37;;;;;;;21.47;70.59;96511.13;4976313;28;20504;-60
2021/09/27 10:20:05;;;;;;;4.20;3.90;;;;;;;21.23;69.87;96505.09;4976277;28;20417;-59
2021/09/27 10:22:35;;;;;;;3.63;3.43;;;;;;;21.30;69.42;96506.31;4976067;28;20888;-59
2021/09/27 10:25:00;;;;;;;3.20;3.00;;;;;;;21.29;68.69;96504.72;4976349;28;20596;-58
2021/09/27 10:27:37;;;;;;;3.57;3.27;;;;;;;21.50;68.90;96510.56;4976159;28;20497;-58
2021/09/27 10:30:20;;;;;;;3.80;3.50;;;;;;;21.64;68.74;96508.72;4976054;28;20626;-60
2021/09/27 10:32:51;;;;;;;3.53;3.30;;;;;;;21.49;68.68;96506.28;4974714;28;20508;-58
2021/09/27 10:35:41;;;;;;;4.47;4.07;;;;;;;21.55;69.50;96509.66;4975891;28;20425;-55
2021/09/27 10:38:23;;;;;;;4.50;4.20;;;;;;;21.75;68.13;96512.03;4975647;28;20916;-58
2021/09/27 10:40:51;;;;;;;3.07;2.87;;;;;;;21.58;66.65;96515.22;4975893;28;20406;-55
2021/09/27 10:43:22;;;;;;;4.80;2.90;;;;;;;21.75;65.43;96504.81;4975402;28;20437;-55
2021/09/27 10:45:52;;;;;;;3.50;3.30;;;;;;;21.73;65.76;96517.69;4975634;28;20467;-58
2021/09/27 10:48:20;;;;;;;4.87;3.43;;;;;;;21.92;66.38;96510.41;4975821;28;20406;-58
2021/09/27 10:50:58;;;;;;;3.47;3.20;;;;;;;22.02;66.72;96509.47;4975953;28;20414;-58
2021/09/27 10:53:32;;;;;;;3.40;3.10;;;;;;;21.80;63.79;96504.75;4975312;28;20401;-55
2021/09/27 10:56:03;;;;;;;2.97;2.67;;;;;;;21.94;62.14;96502.91;4975420;28;20932;-58
2021/09/27 10:58:35;;;;;;;3.20;2.90;;;;;;;22.05;63.72;96512.34;4975410;28;20437;-58
2021/09/27 11:01:01;;;;;;;3.60;3.30;;;;;;;22.36;64.99;96497.31;4975562;28;20414;-55
2021/09/27 11:03:42;;;;;;;3.03;2.83;;;;;;;22.31;63.50;96504.66;4975001;28;20414;-55
2021/09/27 11:06:30;;;;;;;5.60;3.10;;;;;;;22.68;64.66;96503.72;4975111;28;20511;-55
2021/09/27 11:09:28;;;;;;;2.70;2.50;;;;;;;22.73;60.46;96496.38;4975498;28;20409;-55
2021/09/27 11:12:03;;;;;;;2.80;2.60;;;;;;;23.00;61.65;96484.81;4975430;28;20781;-60
2021/09/27 11:15:09;;;;;;;3.30;3.00;;;;;;;23.07;60.75;96490.53;4974644;28;20511;-58
2021/09/27 11:17:40;;;;;;;2.97;2.70;;;;;;;23.22;60.64;96480.28;4975209;28;20441;-60
2021/09/27 11:20:16;;;;;;;3.10;2.90;;;;;;;23.10;59.27;96481.91;4975117;28;20753;-55
2021/09/27 11:22:54;;;;;;;4.60;2.80;;;;;;;23.29;59.44;96480.69;4974822;28;20440;-58
2021/09/27 11:25:22;;;;;;;3.17;2.97;;;;;;;23.41;59.09;96472.91;4974823;28;20456;-55
2021/09/27 11:28:12;;;;;;;3.00;2.80;;;;;;;23.28;58.97;96472.94;4973752;28;20409;-55
2021/09/27 11:31:05;;;;;;;3.13;2.93;;;;;;;23.48;59.24;96472.47;4975125;28;20792;-60
2021/09/27 11:33:30;;;;;;;2.90;2.70;;;;;;;23.60;59.07;96470.03;4974658;28;20402;-57
2021/09/27 11:36:02;;;;;;;2.80;2.50;;;;;;;23.56;58.29;96465.56;4974743;28;20472;-56
2021/09/27 11:38:41;;;;;;;3.23;3.00;;;;;;;23.66;58.26;96463.44;4974735;28;20256;-53
2021/09/27 11:41:12;;;;;;;2.80;2.50;;;;;;;23.19;57.78;96454.06;4974934;28;20408;-56
2021/09/27 11:44:00;;;;;;;2.90;2.70;;;;;;;23.29;57.33;96453.06;4974435;28;20496;-56
2021/09/27 11:46:33;;;;;;;2.90;2.70;;;;;;;23.36;58.42;96458.81;4974630;28;20441;-53
2021/09/27 11:52:02;;;;;;;2.73;2.23;;;;;;;23.33;57.97;96462.09;4974870;28;20434;-56
2021/09/27 11:54:54;;;;;;;2.30;2.20;;;;;;;23.22;58.34;96469.56;4974184;28;20433;-57
2021/09/27 11:57:36;;;;;;;2.47;2.37;;;;;;;23.24;58.61;96464.69;4974355;28;20426;-56
2021/09/27 12:00:16;;;;;;;2.90;2.70;;;;;;;23.22;57.96;96466.88;4974780;28;20909;-53
2021/09/27 12:03:07;;;;;;;2.60;2.40;;;;;;;23.37;58.58;96463.09;4974455;28;20483;-56
2021/09/27 12:06:05;;;;;;;3.77;3.47;;;;;;;23.63;57.64;96471.31;4974450;28;20472;-53
2021/09/27 12:08:41;;;;;;;2.00;1.90;;;;;;;23.75;57.89;96472.31;4978442;28;20432;-57